Filley, Nebraska
Current Conditions -  °F | °C
As of 1:15 AM on Saturday 20 Dec 2014 (Local Time) from KBIE Reporting Station
Overcast Overcast  
Wind Chill: 25°   Ceiling: 1300
Heat Index: 33°   Visibility: 7mi
Dew Point: 31°   Wind: 9mph
Humidity: 94%   Direction: 170°S
Pressure: 30.09"   Gusts: NA
Location:  40.29°N, 96.54°W
Report Text: KBIE 200715Z AUTO 17008KT 7SM SCT008 OVC013 00/M01 A3009 RMK AO2 T00031006
Loading
Personal Weather Stations






























Interactive Weather Map New forecast layout! Learn more

10-Day Weather Forecast

Advertisements
Track Severe Weather on mobile